MiSS Kayla — WDF5910 — position and weather

sailwx.info

Track history (hours):
 
Tides and Currents Weather Stations Pressure Air Temp Water Temp Dewpoint Dewpoint Depression Visibility Wind Speed Wind Dir Waves Ship Positions

MiSS Kayla

Owner: Crosby Marine Transportation LLC, Golden Meadow, LA. More information available from US FCC via Universal Licensing System and Coast Guard Vessel Documentation Center.

Last reported at 2018-May-23 20:58 UTC. Time now 2018-May-25 01:23 UTC.
Position N 29°44' W 095°10'.

Length 20 m; draft 8 m.

Type: Towing. MMSI: 367468580.

Date/timePositionNaut miles runAvg speedWind from/ knotsBaromVisibWave heightAir tempDewpointWater temp
2018-May-23 20:58N 29°44' W 095°10'1 0.1
2018-May-23 14:00N 29°44' W 095°09'2 0.7
2018-May-23 10:40N 29°45' W 095°06'2 6.7
2018-May-23 10:18N 29°44' W 095°09'  
2018-May-21 03:35N 29°44' W 095°10'0 0.0
2018-May-21 03:30N 29°44' W 095°10'0 0.0
2018-May-21 02:36N 29°44' W 095°10'0 0.0
2018-May-18 23:37N 29°44' W 095°10'0 1.4
2018-May-18 23:27N 29°44' W 095°10'0 0.1
2018-May-18 22:53N 29°44' W 095°10'0 0.0
2018-May-18 22:30N 29°44' W 095°10'0 0.0
2018-May-18 21:59N 29°44' W 095°10'0 0.0
2018-May-18 21:24N 29°44' W 095°10'0 0.0
2018-May-18 20:58N 29°44' W 095°10'0 0.0
2018-May-18 20:30N 29°44' W 095°10'0 0.1
2018-May-18 17:02N 29°44' W 095°10'0 0.8
2018-May-18 16:41N 29°44' W 095°09'0 0.0
2018-May-18 16:30N 29°44' W 095°09'0 0.0
2018-May-18 15:59N 29°44' W 095°09'1 0.2
2018-May-18 12:17N 29°44' W 095°09'1 2.0
2018-May-18 11:56N 29°44' W 095°10'0 0.1
2018-May-18 11:30N 29°44' W 095°09'0 0.0
2018-May-18 10:50N 29°44' W 095°09'0 0.0
2018-May-18 10:29N 29°44' W 095°09'0 0.0
2018-May-18 10:00N 29°44' W 095°09'0 0.0
2018-May-18 09:24N 29°44' W 095°09'0 0.0
2018-May-18 09:00N 29°44' W 095°09'0 0.0
2018-May-18 08:29N 29°44' W 095°09'0 0.0
2018-May-18 07:59N 29°44' W 095°09'0 0.0
2018-May-18 07:30N 29°44' W 095°09'0 0.0
2018-May-18 07:00N 29°44' W 095°09'0 0.0
2018-May-18 06:29N 29°44' W 095°09'0 0.0
2018-May-18 06:00N 29°44' W 095°09'0 0.0
2018-May-18 05:30N 29°44' W 095°09'0 0.0
2018-May-18 05:00N 29°44' W 095°09'0 0.0
2018-May-18 04:30N 29°44' W 095°09'0 0.0
2018-May-18 03:55N 29°44' W 095°09'0 0.0
2018-May-18 03:30N 29°44' W 095°09'0 0.0
2018-May-18 03:00N 29°44' W 095°09'0 0.0
2018-May-18 02:30N 29°44' W 095°09'0 0.0
2018-May-18 02:00N 29°44' W 095°09'0 0.0
2018-May-18 00:47N 29°44' W 095°09'0 0.0
2018-May-17 23:35N 29°44' W 095°10'0 0.1
2018-May-17 23:30N 29°44' W 095°09'0 0.0
2018-May-17 22:58N 29°44' W 095°10'0 0.0
2018-May-17 22:26N 29°44' W 095°10'0 0.2
2018-May-17 21:45N 29°44' W 095°10'0 0.0
2018-May-17 13:34N 29°44' W 095°10'0 0.0
2018-May-17 13:29N 29°44' W 095°10'0 0.0
2018-May-17 12:59N 29°44' W 095°10'0 0.0
2018-May-17 10:14N 29°44' W 095°10'0 0.0
2018-May-17 09:12N 29°44' W 095°10'0 0.0
2018-May-17 08:25N 29°44' W 095°10'0 0.0
2018-May-17 07:59N 29°44' W 095°10'0 0.0
2018-May-17 05:44N 29°44' W 095°10'0 0.0
2018-May-17 05:15N 29°44' W 095°10'0 0.6
2018-May-17 04:49N 29°44' W 095°10'0 0.7
2018-May-17 04:26N 29°44' W 095°10'0 0.6
2018-May-17 04:00N 29°44' W 095°10'0 0.0
2018-May-17 03:30N 29°44' W 095°10'0 0.0
2018-May-17 03:00N 29°44' W 095°10'0 0.0
2018-May-17 02:30N 29°44' W 095°10'0 0.0
2018-May-17 02:00N 29°44' W 095°10'0 0.0
2018-May-17 01:30N 29°44' W 095°10'1 1.0
2018-May-17 00:51N 29°44' W 095°09'0 0.0
2018-May-16 14:45N 29°44' W 095°09'0 0.1
2018-May-16 14:23N 29°44' W 095°09'0 0.0
2018-May-16 14:00N 29°44' W 095°09'0 0.1
2018-May-16 13:30N 29°44' W 095°10'3 5.4
2018-May-16 13:00N 29°44' W 095°07'2 3.5
2018-May-16 12:29N 29°46' W 095°06'0 0.0
2018-May-16 12:00N 29°46' W 095°06'1 2.3
2018-May-16 11:30N 29°45' W 095°06'3 6.5
2018-May-16 11:00N 29°44' W 095°09'0 0.3
2018-May-16 10:30N 29°44' W 095°10'0 0.0
2018-May-16 09:55N 29°44' W 095°10'0 0.0
2018-May-16 09:30N 29°44' W 095°10'0 0.4
2018-May-16 09:00N 29°44' W 095°10'1 2.1
2018-May-16 08:30N 29°44' W 095°08'3 5.3
2018-May-16 08:00N 29°45' W 095°06'2 3.6
2018-May-16 07:30N 29°47' W 095°05'1 1.1
2018-May-16 07:00N 29°46' W 095°05'2 4.6
2018-May-16 06:30N 29°45' W 095°06'3 5.2
2018-May-16 06:00N 29°44' W 095°09'0 0.7
2018-May-16 05:30N 29°44' W 095°10'0 0.0
2018-May-16 04:56N 29°44' W 095°10'0 0.0
2018-May-16 04:30N 29°44' W 095°10'0 0.0
2018-May-16 04:00N 29°44' W 095°10'0 0.0
2018-May-16 03:28N 29°44' W 095°10'0 0.0
2018-May-16 02:59N 29°44' W 095°10'0 0.0
2018-May-16 02:30N 29°44' W 095°10'0 0.0
2018-May-16 02:00N 29°44' W 095°10'0 0.0
2018-May-15 14:10N 29°44' W 095°10'0 0.0
2018-May-15 13:49N 29°44' W 095°10'0 0.0
2018-May-15 12:49N 29°44' W 095°10'0 0.0
2018-May-15 12:22N 29°44' W 095°10'0 0.0
2018-May-15 11:59N 29°44' W 095°10'0 0.0
2018-May-15 11:29N 29°44' W 095°10'0 0.0
2018-May-15 10:43N 29°44' W 095°10'0 0.0
2018-May-15 10:30N 29°44' W 095°10'0 0.0
2018-May-15 10:00N 29°44' W 095°10'0 0.0
2018-May-15 09:26N 29°44' W 095°10'0 0.0
2018-May-15 08:21N 29°44' W 095°10'0 0.0
2018-May-15 08:00N 29°44' W 095°10'0 0.0
2018-May-15 07:13N 29°44' W 095°10'0 0.7
2018-May-15 06:46N 29°44' W 095°09'2 5.5
2018-May-15 06:28N 29°44' W 095°07'3 5.5
2018-May-15 05:59N 29°46' W 095°05'1 2.1
2018-May-15 05:30N 29°47' W 095°05'0 0.0
2018-May-15 05:00N 29°47' W 095°05'3 3.8
2018-May-15 04:19N 29°45' W 095°06'2 5.5
2018-May-15 03:55N 29°44' W 095°09'1 2.0
2018-May-15 03:30N 29°44' W 095°10'0 0.0
2018-May-15 02:59N 29°44' W 095°10'0 0.0
2018-May-15 02:30N 29°44' W 095°10'0 0.0
2018-May-15 01:58N 29°44' W 095°10'0 0.7
2018-May-15 01:30N 29°44' W 095°10'0 0.0
2018-May-15 00:56N 29°44' W 095°10'0 0.0
2018-May-15 00:28N 29°44' W 095°09'0 0.0
2018-May-14 23:55N 29°44' W 095°09'0 0.0
2018-May-14 20:57N 29°44' W 095°09'0 0.0
2018-May-14 18:57N 29°44' W 095°09'0 0.0
2018-May-14 18:24N 29°44' W 095°09'0 0.0
2018-May-14 17:45N 29°44' W 095°10'0 0.0
2018-May-14 16:44N 29°44' W 095°10'0 0.0
2018-May-14 16:16N 29°44' W 095°10'0 0.0
2018-May-14 15:55N 29°44' W 095°09'0 0.0
2018-May-14 15:07N 29°44' W 095°09'0 0.0
2018-May-14 10:26N 29°44' W 095°10'0 0.0
2018-May-13 21:48N 29°44' W 095°10'  
Track history (hours):
 
Tides and Currents Weather Stations Pressure Air Temp Water Temp Dewpoint Dewpoint Depression Visibility Wind Speed Wind Dir Waves Ship Positions

MiSS Kayla

Owner: Crosby Marine Transportation LLC, Golden Meadow, LA. More information available from US FCC via Universal Licensing System and Coast Guard Vessel Documentation Center.

Last reported at 2018-May-23 20:58 UTC. Time now 2018-May-25 01:23 UTC.
Position N 29°44' W 095°10'.

Length 20 m; draft 8 m.

Type: Towing. MMSI: 367468580.

Date/timePositionNaut miles runAvg speedWind from/ knotsBaromVisibWave heightAir tempDewpointWater temp
2018-May-23 20:58N 29°44' W 095°10'1 0.1
2018-May-23 14:00N 29°44' W 095°09'2 0.7
2018-May-23 10:40N 29°45' W 095°06'2 6.7
2018-May-23 10:18N 29°44' W 095°09'  
2018-May-21 03:35N 29°44' W 095°10'0 0.0
2018-May-21 03:30N 29°44' W 095°10'0 0.0
2018-May-21 02:36N 29°44' W 095°10'0 0.0
2018-May-18 23:37N 29°44' W 095°10'0 1.4
2018-May-18 23:27N 29°44' W 095°10'0 0.1
2018-May-18 22:53N 29°44' W 095°10'0 0.0
2018-May-18 22:30N 29°44' W 095°10'0 0.0
2018-May-18 21:59N 29°44' W 095°10'0 0.0
2018-May-18 21:24N 29°44' W 095°10'0 0.0
2018-May-18 20:58N 29°44' W 095°10'0 0.0
2018-May-18 20:30N 29°44' W 095°10'0 0.1
2018-May-18 17:02N 29°44' W 095°10'0 0.8
2018-May-18 16:41N 29°44' W 095°09'0 0.0
2018-May-18 16:30N 29°44' W 095°09'0 0.0
2018-May-18 15:59N 29°44' W 095°09'1 0.2
2018-May-18 12:17N 29°44' W 095°09'1 2.0
2018-May-18 11:56N 29°44' W 095°10'0 0.1
2018-May-18 11:30N 29°44' W 095°09'0 0.0
2018-May-18 10:50N 29°44' W 095°09'0 0.0
2018-May-18 10:29N 29°44' W 095°09'0 0.0
2018-May-18 10:00N 29°44' W 095°09'0 0.0
2018-May-18 09:24N 29°44' W 095°09'0 0.0
2018-May-18 09:00N 29°44' W 095°09'0 0.0
2018-May-18 08:29N 29°44' W 095°09'0 0.0
2018-May-18 07:59N 29°44' W 095°09'0 0.0
2018-May-18 07:30N 29°44' W 095°09'0 0.0
2018-May-18 07:00N 29°44' W 095°09'0 0.0
2018-May-18 06:29N 29°44' W 095°09'0 0.0
2018-May-18 06:00N 29°44' W 095°09'0 0.0
2018-May-18 05:30N 29°44' W 095°09'0 0.0
2018-May-18 05:00N 29°44' W 095°09'0 0.0
2018-May-18 04:30N 29°44' W 095°09'0 0.0
2018-May-18 03:55N 29°44' W 095°09'0 0.0
2018-May-18 03:30N 29°44' W 095°09'0 0.0
2018-May-18 03:00N 29°44' W 095°09'0 0.0
2018-May-18 02:30N 29°44' W 095°09'0 0.0
2018-May-18 02:00N 29°44' W 095°09'0 0.0
2018-May-18 00:47N 29°44' W 095°09'0 0.0
2018-May-17 23:35N 29°44' W 095°10'0 0.1
2018-May-17 23:30N 29°44' W 095°09'0 0.0
2018-May-17 22:58N 29°44' W 095°10'0 0.0
2018-May-17 22:26N 29°44' W 095°10'0 0.2
2018-May-17 21:45N 29°44' W 095°10'0 0.0
2018-May-17 13:34N 29°44' W 095°10'0 0.0
2018-May-17 13:29N 29°44' W 095°10'0 0.0
2018-May-17 12:59N 29°44' W 095°10'0 0.0
2018-May-17 10:14N 29°44' W 095°10'0 0.0
2018-May-17 09:12N 29°44' W 095°10'0 0.0
2018-May-17 08:25N 29°44' W 095°10'0 0.0
2018-May-17 07:59N 29°44' W 095°10'0 0.0
2018-May-17 05:44N 29°44' W 095°10'0 0.0
2018-May-17 05:15N 29°44' W 095°10'0 0.6
2018-May-17 04:49N 29°44' W 095°10'0 0.7
2018-May-17 04:26N 29°44' W 095°10'0 0.6
2018-May-17 04:00N 29°44' W 095°10'0 0.0
2018-May-17 03:30N 29°44' W 095°10'0 0.0
2018-May-17 03:00N 29°44' W 095°10'0 0.0
2018-May-17 02:30N 29°44' W 095°10'0 0.0
2018-May-17 02:00N 29°44' W 095°10'0 0.0
2018-May-17 01:30N 29°44' W 095°10'1 1.0
2018-May-17 00:51N 29°44' W 095°09'0 0.0
2018-May-16 14:45N 29°44' W 095°09'0 0.1
2018-May-16 14:23N 29°44' W 095°09'0 0.0
2018-May-16 14:00N 29°44' W 095°09'0 0.1
2018-May-16 13:30N 29°44' W 095°10'3 5.4
2018-May-16 13:00N 29°44' W 095°07'2 3.5
2018-May-16 12:29N 29°46' W 095°06'0 0.0
2018-May-16 12:00N 29°46' W 095°06'1 2.3
2018-May-16 11:30N 29°45' W 095°06'3 6.5
2018-May-16 11:00N 29°44' W 095°09'0 0.3
2018-May-16 10:30N 29°44' W 095°10'0 0.0
2018-May-16 09:55N 29°44' W 095°10'0 0.0
2018-May-16 09:30N 29°44' W 095°10'0 0.4
2018-May-16 09:00N 29°44' W 095°10'1 2.1
2018-May-16 08:30N 29°44' W 095°08'3 5.3
2018-May-16 08:00N 29°45' W 095°06'2 3.6
2018-May-16 07:30N 29°47' W 095°05'1 1.1
2018-May-16 07:00N 29°46' W 095°05'2 4.6
2018-May-16 06:30N 29°45' W 095°06'3 5.2
2018-May-16 06:00N 29°44' W 095°09'0 0.7
2018-May-16 05:30N 29°44' W 095°10'0 0.0
2018-May-16 04:56N 29°44' W 095°10'0 0.0
2018-May-16 04:30N 29°44' W 095°10'0 0.0
2018-May-16 04:00N 29°44' W 095°10'0 0.0
2018-May-16 03:28N 29°44' W 095°10'0 0.0
2018-May-16 02:59N 29°44' W 095°10'0 0.0
2018-May-16 02:30N 29°44' W 095°10'0 0.0
2018-May-16 02:00N 29°44' W 095°10'0 0.0
2018-May-15 14:10N 29°44' W 095°10'0 0.0
2018-May-15 13:49N 29°44' W 095°10'0 0.0
2018-May-15 12:49N 29°44' W 095°10'0 0.0
2018-May-15 12:22N 29°44' W 095°10'0 0.0
2018-May-15 11:59N 29°44' W 095°10'0 0.0
2018-May-15 11:29N 29°44' W 095°10'0 0.0
2018-May-15 10:43N 29°44' W 095°10'0 0.0
2018-May-15 10:30N 29°44' W 095°10'0 0.0
2018-May-15 10:00N 29°44' W 095°10'0 0.0
2018-May-15 09:26N 29°44' W 095°10'0 0.0
2018-May-15 08:21N 29°44' W 095°10'0 0.0
2018-May-15 08:00N 29°44' W 095°10'0 0.0
2018-May-15 07:13N 29°44' W 095°10'0 0.7
2018-May-15 06:46N 29°44' W 095°09'2 5.5
2018-May-15 06:28N 29°44' W 095°07'3 5.5
2018-May-15 05:59N 29°46' W 095°05'1 2.1
2018-May-15 05:30N 29°47' W 095°05'0 0.0
2018-May-15 05:00N 29°47' W 095°05'3 3.8
2018-May-15 04:19N 29°45' W 095°06'2 5.5
2018-May-15 03:55N 29°44' W 095°09'1 2.0
2018-May-15 03:30N 29°44' W 095°10'0 0.0
2018-May-15 02:59N 29°44' W 095°10'0 0.0
2018-May-15 02:30N 29°44' W 095°10'0 0.0
2018-May-15 01:58N 29°44' W 095°10'0 0.7
2018-May-15 01:30N 29°44' W 095°10'0 0.0
2018-May-15 00:56N 29°44' W 095°10'0 0.0
2018-May-15 00:28N 29°44' W 095°09'0 0.0
2018-May-14 23:55N 29°44' W 095°09'0 0.0
2018-May-14 20:57N 29°44' W 095°09'0 0.0
2018-May-14 18:57N 29°44' W 095°09'0 0.0
2018-May-14 18:24N 29°44' W 095°09'0 0.0
2018-May-14 17:45N 29°44' W 095°10'0 0.0
2018-May-14 16:44N 29°44' W 095°10'0 0.0
2018-May-14 16:16N 29°44' W 095°10'0 0.0
2018-May-14 15:55N 29°44' W 095°09'0 0.0
2018-May-14 15:07N 29°44' W 095°09'0 0.0
2018-May-14 10:26N 29°44' W 095°10'0 0.0
2018-May-13 21:48N 29°44' W 095°10'  

Dump ship's entire track history